KRRL/RRL METAR and TAF weather

Enter ICAO airport designator
Station Type Date Time Source
KRRL METAR 2019/06/27 08:35 UTC NOAA

KRRL 270835Z AUTO 00000KT 10SM CLR 11/11 A3012 RMK AO2 T01100110 TSNO


Station Type Date Time Source
KRRL Decoded METAR 2019/06/27 08:35 UTC NOAA

Merrill, Merrill Municipal Airport, WI, United States (KRRL) 45-11N 089-42W
Jun 27, 2019 - 04:35 AM EDT / 2019.06.27 0835 UTC
Wind: Calm:0
Visibility: 10 mile(s):0
Sky conditions: clear
Temperature: 51.8 F (11.0 C)
Dew Point: 51.8 F (11.0 C)
Relative Humidity: 100%
Pressure (altimeter): 30.12 in. Hg (1019 hPa)
ob: KRRL 270835Z AUTO 00000KT 10SM CLR 11/11 A3012 RMK AO2 T01100110 TSNO
cycle: 8

Station Type Date Time Source
KRRL TAF UTC NOAA

Error!

Example: see airport list